Atterbury, Indiana
Current Conditions -  °F | °C
As of 10:53 AM on Tuesday 21 Oct 2014 (Local Time) from KGEZ Reporting Station
Overcast Overcast  
Wind Chill: 53°   Ceiling: 3000
Heat Index: 53°   Visibility: 10mi
Dew Point: 44°   Wind: 10mph
Humidity: 71%   Direction: 340°NNW
Pressure: 30.07"   Gusts: NA
Location:  39.3642°N, 85.9645°W
Report Text: KGEZ 211453Z AUTO 34009KT 10SM FEW021 BKN030 OVC037 12/07 A3007 RMK AO2 SLP182 T01170067 51017
Loading
Personal Weather Stations






























Interactive Weather Map New forecast layout! Learn more

10-Day Weather Forecast

Advertisements
Track Severe Weather on mobile